Pilot Mound, Minnesota
Current Conditions -  °F | °C
As of 12:15 PM on Wednesday 28 Jan 2015 (Local Time) from KFKA Reporting Station
Haze Haze  
Wind Chill: 17°   Ceiling: 100
Heat Index: 28°   Visibility: 1.7mi
Dew Point: 27°   Wind: 13mph
Humidity: 97%   Direction: 140°SE
Pressure: 29.92"   Gusts: 17mph
Location:  43.8233°N, 92.1103°W
Report Text: KFKA 281815Z AUTO 14011G15KT 1 3/4SM BR OVC001 M02/M03 A2992 RMK AO2 T10251029
Loading
Personal Weather Stations






























Interactive Weather Map New forecast layout! Learn more

10-Day Weather Forecast

Advertisements
Track Severe Weather on mobile